createdAt,value
2023-01-23T00:00:23.399Z,97.75
2023-01-23T00:03:17.199Z,97.92
2023-01-23T00:05:59.971Z,98.04
2023-01-23T00:08:36.368Z,97.44
2023-01-23T00:11:12.426Z,97.83
2023-01-23T00:13:45.692Z,98.16
2023-01-23T00:16:23.287Z,97.73
2023-01-23T00:18:56.793Z,97.20
2023-01-23T00:21:30.817Z,97.61
2023-01-23T00:24:03.974Z,97.08
2023-01-23T00:26:37.853Z,97.44
2023-01-23T00:29:10.484Z,97.81
2023-01-23T00:31:43.381Z,98.13
2023-01-23T00:34:17.841Z,98.24
2023-01-23T00:36:51.256Z,98.41
2023-01-23T00:39:24.970Z,97.51
2023-01-23T00:41:58.297Z,98.39
2023-01-23T00:44:31.628Z,98.61
2023-01-23T00:47:04.359Z,98.24
2023-01-23T00:49:37.825Z,98.24
2023-01-23T00:52:11.627Z,98.22
2023-01-23T00:54:44.271Z,97.69
2023-01-23T00:57:17.032Z,98.12
2023-01-23T00:59:50.146Z,98.26
2023-01-23T01:02:23.388Z,97.85
2023-01-23T01:04:56.595Z,98.43
2023-01-23T01:07:29.590Z,98.71
2023-01-23T01:10:02.335Z,98.50
2023-01-23T01:12:35.129Z,98.76
2023-01-23T01:15:12.872Z,98.77
2023-01-23T01:17:45.536Z,98.75
2023-01-23T01:20:18.690Z,98.52
2023-01-23T01:22:54.828Z,98.69
2023-01-23T01:25:28.429Z,98.31
2023-01-23T01:28:01.974Z,98.33
2023-01-23T01:30:36.964Z,98.14
2023-01-23T01:33:11.166Z,98.02
2023-01-23T01:35:44.590Z,97.83
2023-01-23T01:38:17.310Z,98.33
2023-01-23T01:40:50.348Z,98.26
2023-01-23T01:43:25.246Z,98.46
2023-01-23T01:46:23.450Z,98.76
2023-01-23T01:49:04.145Z,98.60
2023-01-23T01:51:40.007Z,98.43
2023-01-23T01:54:19.658Z,98.19
2023-01-23T01:56:56.955Z,98.10
2023-01-23T01:59:33.101Z,98.30
2023-01-23T02:02:11.585Z,98.58
2023-01-23T02:04:49.327Z,98.24
2023-01-23T02:07:27.431Z,98.35
2023-01-23T02:10:00.909Z,98.81
2023-01-23T02:12:35.345Z,99.18
2023-01-23T02:15:11.996Z,99.36
2023-01-23T02:17:48.089Z,98.98
2023-01-23T02:20:25.439Z,98.91
2023-01-23T02:23:06.958Z,98.88
2023-01-23T02:25:44.201Z,99.12
2023-01-23T02:28:20.089Z,99.02
2023-01-23T02:30:52.856Z,99.04
2023-01-23T02:33:51.927Z,98.84
2023-01-23T02:36:27.479Z,98.54
2023-01-23T02:39:08.148Z,98.84
2023-01-23T02:41:42.976Z,99.30
2023-01-23T02:44:21.429Z,98.95
2023-01-23T02:46:58.295Z,99.56
2023-01-23T02:49:33.226Z,99.17
2023-01-23T02:52:09.930Z,99.31
2023-01-23T02:54:43.223Z,99.33
2023-01-23T02:57:17.046Z,99.33
2023-01-23T03:00:07.469Z,99.02
2023-01-23T03:02:42.707Z,99.33
2023-01-23T03:05:16.642Z,99.17
2023-01-23T03:07:50.173Z,98.46
2023-01-23T03:10:22.881Z,98.53
2023-01-23T03:12:58.338Z,98.24
2023-01-23T03:15:31.860Z,98.26
2023-01-23T03:18:05.049Z,98.94
2023-01-23T03:20:43.166Z,98.27
2023-01-23T03:23:16.765Z,98.04
2023-01-23T03:25:58.662Z,98.03
2023-01-23T03:28:51.798Z,98.09
2023-01-23T03:31:24.693Z,98.01
2023-01-23T03:33:57.301Z,98.33
2023-01-23T03:36:30.837Z,98.58
2023-01-23T03:39:21.912Z,98.52
2023-01-23T03:41:55.162Z,98.56
2023-01-23T03:44:29.386Z,98.70
2023-01-23T03:47:03.238Z,98.64
2023-01-23T03:49:36.804Z,98.42
2023-01-23T03:52:10.294Z,98.60
2023-01-23T03:54:44.242Z,98.34
2023-01-23T03:57:18.978Z,98.26
2023-01-23T03:59:54.160Z,98.17
2023-01-23T04:02:30.531Z,98.58
2023-01-23T04:05:03.901Z,98.44
2023-01-23T04:07:38.130Z,97.95
2023-01-23T04:10:13.610Z,97.82
2023-01-23T04:12:47.156Z,98.12
2023-01-23T04:15:21.068Z,98.24
2023-01-23T04:17:55.838Z,98.14
2023-01-23T04:20:29.792Z,97.78
2023-01-23T04:23:03.553Z,97.92
2023-01-23T04:25:37.881Z,98.02
2023-01-23T04:28:11.737Z,97.68
2023-01-23T04:30:45.165Z,97.86
2023-01-23T04:33:24.450Z,97.81
2023-01-23T04:36:00.259Z,97.83
2023-01-23T04:38:35.578Z,98.17
2023-01-23T04:41:27.171Z,98.23
2023-01-23T04:44:21.661Z,98.04
2023-01-23T04:47:26.984Z,97.74
2023-01-23T04:50:00.238Z,97.93
2023-01-23T04:52:34.098Z,98.09
2023-01-23T04:55:07.915Z,98.10
2023-01-23T04:57:40.785Z,97.78
2023-01-23T05:00:22.490Z,97.69
2023-01-23T05:03:15.780Z,97.64
2023-01-23T05:05:51.478Z,97.23
2023-01-23T05:08:24.801Z,97.49
2023-01-23T05:11:07.236Z,97.70
2023-01-23T05:13:40.071Z,97.55
2023-01-23T05:16:14.171Z,97.80
2023-01-23T05:19:05.839Z,97.65
2023-01-23T05:21:41.209Z,97.45
2023-01-23T05:24:17.698Z,97.25
2023-01-23T05:26:51.948Z,97.47
2023-01-23T05:29:25.727Z,97.70
2023-01-23T05:32:08.187Z,97.76
2023-01-23T05:34:45.208Z,97.97
2023-01-23T05:37:27.788Z,97.85
2023-01-23T05:40:10.334Z,97.88
2023-01-23T05:43:01.559Z,97.65
2023-01-23T05:46:06.584Z,97.41
2023-01-23T05:48:53.428Z,97.67
2023-01-23T05:51:32.453Z,97.28
2023-01-23T05:54:06.782Z,97.63
2023-01-23T05:56:40.162Z,97.85
2023-01-23T05:59:30.958Z,97.59
2023-01-23T06:02:36.839Z,97.66
2023-01-23T06:05:29.185Z,97.52
2023-01-23T06:08:07.139Z,97.72
2023-01-23T06:10:41.380Z,97.57
2023-01-23T06:13:15.213Z,97.70
2023-01-23T06:15:49.265Z,97.81
2023-01-23T06:18:24.894Z,97.90
2023-01-23T06:21:03.810Z,97.97
2023-01-23T06:23:37.063Z,98.27
2023-01-23T06:26:11.255Z,98.13
2023-01-23T06:28:44.771Z,98.22
2023-01-23T06:31:22.313Z,98.01
2023-01-23T06:34:01.607Z,98.35
2023-01-23T06:36:37.093Z,98.32
2023-01-23T06:39:13.690Z,98.62
2023-01-23T06:41:47.195Z,98.93
2023-01-23T06:44:24.257Z,98.64
2023-01-23T06:46:57.641Z,98.82
2023-01-23T06:49:31.659Z,98.85
2023-01-23T06:52:04.623Z,98.82
2023-01-23T06:54:38.942Z,98.61
2023-01-23T06:57:13.945Z,98.88
2023-01-23T06:59:47.010Z,98.43
2023-01-23T07:02:22.108Z,98.64
2023-01-23T07:04:59.125Z,98.85
2023-01-23T07:07:33.789Z,98.85
2023-01-23T07:10:08.326Z,98.75
2023-01-23T07:12:41.377Z,98.65
2023-01-23T07:15:16.053Z,98.66
2023-01-23T07:17:50.408Z,98.51
2023-01-23T07:20:27.490Z,98.23
2023-01-23T07:23:04.638Z,98.33
2023-01-23T07:25:38.253Z,98.21
2023-01-23T07:28:12.422Z,98.22
2023-01-23T07:30:45.609Z,98.14
2023-01-23T07:33:19.202Z,97.75
2023-01-23T07:35:52.649Z,97.51
2023-01-23T07:38:25.994Z,97.82
2023-01-23T07:41:01.489Z,98.00
2023-01-23T07:43:35.817Z,97.60
2023-01-23T07:46:09.966Z,97.61
2023-01-23T07:48:43.828Z,97.25
2023-01-23T07:51:16.579Z,97.28
2023-01-23T07:53:49.809Z,96.66
2023-01-23T07:56:23.157Z,96.58
2023-01-23T07:58:57.528Z,96.84
2023-01-23T08:01:30.418Z,97.09
2023-01-23T08:04:03.580Z,96.91
2023-01-23T08:06:38.388Z,96.58
2023-01-23T08:09:12.520Z,96.91
2023-01-23T08:11:45.794Z,96.57
2023-01-23T08:14:18.799Z,96.75
2023-01-23T08:16:53.699Z,96.48
2023-01-23T08:19:28.065Z,96.22
2023-01-23T08:22:01.315Z,96.19
2023-01-23T08:24:35.691Z,95.87
2023-01-23T08:27:09.957Z,95.52
2023-01-23T08:29:43.225Z,95.86
2023-01-23T08:32:16.553Z,95.83
2023-01-23T08:34:49.843Z,95.46
2023-01-23T08:37:22.991Z,95.25
2023-01-23T08:39:56.578Z,95.18
2023-01-23T08:42:29.527Z,95.26
2023-01-23T08:45:02.280Z,95.00
2023-01-23T08:47:37.149Z,95.18
2023-01-23T08:50:13.496Z,95.43
2023-01-23T08:52:46.718Z,95.32
2023-01-23T08:55:19.945Z,95.44
2023-01-23T08:57:54.285Z,95.37
2023-01-23T09:00:28.215Z,95.28
2023-01-23T09:03:02.898Z,95.31
2023-01-23T09:05:37.364Z,95.35
2023-01-23T09:08:10.461Z,95.47
2023-01-23T09:10:44.528Z,94.86
2023-01-23T09:13:19.872Z,94.68
2023-01-23T09:15:53.364Z,94.75
2023-01-23T09:18:26.179Z,94.66
2023-01-23T09:20:59.278Z,94.65
2023-01-23T09:23:32.348Z,94.86
2023-01-23T09:26:09.279Z,94.55
2023-01-23T09:28:44.035Z,94.35
2023-01-23T09:31:16.777Z,94.44
2023-01-23T09:33:50.898Z,94.59
2023-01-23T09:36:41.301Z,94.61
2023-01-23T09:39:16.102Z,94.40
2023-01-23T09:41:50.755Z,94.77
2023-01-23T09:44:34.185Z,94.71
2023-01-23T09:47:12.681Z,94.54
2023-01-23T09:49:50.677Z,94.69
2023-01-23T09:52:27.564Z,94.45
2023-01-23T09:55:14.185Z,94.70
2023-01-23T09:57:54.973Z,93.95
2023-01-23T10:00:32.058Z,93.97
2023-01-23T10:03:16.061Z,94.26
2023-01-23T10:06:02.353Z,94.03
2023-01-23T10:08:43.680Z,93.92
2023-01-23T10:11:26.148Z,93.52
2023-01-23T10:14:20.125Z,93.79
2023-01-23T10:17:08.747Z,93.86
2023-01-23T10:19:52.624Z,93.68
2023-01-23T10:22:37.131Z,93.84
2023-01-23T10:25:18.674Z,93.96
2023-01-23T10:27:58.354Z,93.95
2023-01-23T10:30:38.167Z,93.79
2023-01-23T10:33:17.015Z,93.14
2023-01-23T10:35:57.616Z,93.35
2023-01-23T10:38:37.126Z,93.26
2023-01-23T10:41:21.199Z,93.37
2023-01-23T10:43:59.741Z,93.38
2023-01-23T10:46:35.701Z,93.05
2023-01-23T10:49:10.614Z,93.39
2023-01-23T10:51:51.008Z,92.93
2023-01-23T10:54:32.193Z,93.12
2023-01-23T10:57:26.166Z,92.87
2023-01-23T11:00:04.613Z,92.40
2023-01-23T11:02:40.834Z,92.84
2023-01-23T11:05:50.589Z,93.00
2023-01-23T11:08:32.416Z,92.41
2023-01-23T11:11:24.439Z,92.75
2023-01-23T11:14:13.920Z,92.07
2023-01-23T11:16:47.823Z,92.12
2023-01-23T11:19:23.863Z,92.03
2023-01-23T11:21:59.945Z,92.01
2023-01-23T11:24:41.167Z,91.98
2023-01-23T11:27:26.480Z,92.42
2023-01-23T11:30:36.109Z,92.02
2023-01-23T11:33:18.813Z,92.49
2023-01-23T11:36:05.323Z,92.21
2023-01-23T11:38:52.253Z,92.62
2023-01-23T11:41:32.229Z,92.68
2023-01-23T11:44:18.408Z,92.04
2023-01-23T11:47:13.681Z,92.33
2023-01-23T11:50:04.859Z,92.17
2023-01-23T11:52:49.316Z,92.49
2023-01-23T11:55:41.618Z,92.42
2023-01-23T11:58:28.046Z,92.31
2023-01-23T12:01:13.732Z,92.08
2023-01-23T12:04:23.025Z,91.84
2023-01-23T12:07:21.319Z,92.34
2023-01-23T12:10:09.536Z,92.51
2023-01-23T12:13:13.533Z,92.70
2023-01-23T12:16:01.311Z,92.32
2023-01-23T12:18:46.130Z,92.55
2023-01-23T12:21:23.252Z,92.76
2023-01-23T12:24:13.951Z,92.52
2023-01-23T12:27:02.190Z,92.47
2023-01-23T12:29:54.727Z,92.48
2023-01-23T12:32:45.255Z,92.60
2023-01-23T12:35:44.652Z,92.73
2023-01-23T12:38:30.456Z,92.92
2023-01-23T12:41:19.457Z,93.23
2023-01-23T12:43:58.758Z,93.37
2023-01-23T12:46:38.250Z,92.83
2023-01-23T12:49:23.381Z,93.27
2023-01-23T12:52:03.539Z,93.41
2023-01-23T12:54:44.058Z,93.38
2023-01-23T12:57:52.852Z,93.49
2023-01-23T13:00:43.397Z,93.86
2023-01-23T13:03:45.981Z,92.91
2023-01-23T13:06:46.284Z,93.08
2023-01-23T13:09:29.319Z,92.93
2023-01-23T13:12:22.210Z,92.84
2023-01-23T13:15:34.334Z,93.20
2023-01-23T13:18:30.164Z,93.67
2023-01-23T13:21:22.391Z,93.36
2023-01-23T13:24:33.958Z,93.61
2023-01-23T13:27:36.979Z,93.62
2023-01-23T13:30:45.634Z,93.69
2023-01-23T13:33:58.787Z,94.33
2023-01-23T13:36:38.861Z,94.07
2023-01-23T13:39:31.290Z,94.22
2023-01-23T13:42:44.967Z,94.12
2023-01-23T13:45:38.360Z,93.96
2023-01-23T14:21:48.163Z,93.83
2023-01-23T14:24:27.335Z,93.78
2023-01-23T14:27:11.512Z,93.77
2023-01-23T14:29:56.777Z,93.24
2023-01-23T14:32:32.596Z,93.29
2023-01-23T14:35:16.913Z,93.85
2023-01-23T14:37:50.846Z,93.55
2023-01-23T14:40:28.464Z,93.42
2023-01-23T14:43:08.050Z,93.09
2023-01-23T14:45:41.523Z,92.66
2023-01-23T14:48:19.191Z,92.81
2023-01-23T14:51:02.394Z,92.64
2023-01-23T14:53:40.480Z,92.68
2023-01-23T14:56:15.923Z,93.13
2023-01-23T14:58:50.529Z,93.12
2023-01-23T15:01:24.239Z,92.87
2023-01-23T15:04:05.623Z,92.52
2023-01-23T15:06:39.692Z,92.41
2023-01-23T15:09:18.946Z,92.52
2023-01-23T15:11:51.958Z,92.59
2023-01-23T15:14:34.692Z,92.44
2023-01-23T15:17:14.201Z,92.44
2023-01-23T15:19:55.560Z,92.44
2023-01-23T15:22:33.174Z,92.58
2023-01-23T15:25:29.757Z,92.34
2023-01-23T15:28:03.729Z,91.91
2023-01-23T15:30:49.546Z,91.89
2023-01-23T15:33:34.838Z,91.77
2023-01-23T15:36:24.110Z,92.19
2023-01-23T15:39:00.471Z,91.98
2023-01-23T15:41:48.088Z,92.46
2023-01-23T15:44:24.080Z,92.56
2023-01-23T15:46:56.984Z,92.46
2023-01-23T15:49:30.775Z,92.23
2023-01-23T15:52:18.987Z,92.13
2023-01-23T15:54:54.580Z,92.20
2023-01-23T15:57:27.512Z,91.89
2023-01-23T16:00:01.375Z,91.73
2023-01-23T16:02:39.355Z,91.85
2023-01-23T16:05:18.014Z,91.64
2023-01-23T16:07:52.188Z,92.31
2023-01-23T16:10:27.961Z,92.18
2023-01-23T16:13:01.417Z,91.98
2023-01-23T16:15:37.170Z,91.87
2023-01-23T16:18:11.033Z,92.26
2023-01-23T16:20:47.038Z,92.02
2023-01-23T16:23:24.838Z,91.81
2023-01-23T16:25:57.994Z,91.71
2023-01-23T16:28:32.558Z,92.21
2023-01-23T16:31:05.926Z,91.86
2023-01-23T16:33:39.126Z,91.78
2023-01-23T16:36:18.660Z,91.66
2023-01-23T16:38:56.633Z,91.83
2023-01-23T16:41:29.570Z,91.63
2023-01-23T16:44:02.181Z,92.01
2023-01-23T16:46:35.008Z,91.86
2023-01-23T16:49:09.247Z,92.39
2023-01-23T16:51:44.565Z,92.34
2023-01-23T16:54:21.795Z,92.12
2023-01-23T16:56:57.671Z,91.81
2023-01-23T16:59:37.089Z,91.89
2023-01-23T17:02:22.053Z,92.31
2023-01-23T17:04:55.177Z,92.08
2023-01-23T17:07:28.750Z,91.77
2023-01-23T17:10:01.527Z,91.76
2023-01-23T17:12:37.446Z,91.44
2023-01-23T17:15:20.864Z,91.47
2023-01-23T17:17:59.533Z,91.47
2023-01-23T17:20:33.538Z,91.11
2023-01-23T17:23:06.158Z,91.40
2023-01-23T17:25:50.956Z,91.58
2023-01-23T17:28:32.419Z,91.63
2023-01-23T17:31:06.736Z,91.79
2023-01-23T17:33:39.914Z,91.44
2023-01-23T17:36:15.348Z,91.32
2023-01-23T17:38:49.204Z,91.68
2023-01-23T17:41:23.159Z,91.49
2023-01-23T17:43:56.646Z,91.35
2023-01-23T17:46:34.280Z,91.15
2023-01-23T17:49:21.530Z,91.52
2023-01-23T17:51:55.609Z,91.46
2023-01-23T17:54:29.916Z,91.45
2023-01-23T17:57:03.300Z,91.33
2023-01-23T17:59:37.787Z,91.54
2023-01-23T18:02:28.079Z,91.72
2023-01-23T18:05:01.359Z,91.23
2023-01-23T18:07:48.630Z,91.43
2023-01-23T18:10:29.927Z,91.26
2023-01-23T18:13:15.781Z,90.96
2023-01-23T18:16:04.355Z,90.96
2023-01-23T18:18:39.143Z,90.78
2023-01-23T18:21:18.052Z,91.41
2023-01-23T18:23:55.483Z,91.19
2023-01-23T18:26:39.798Z,91.20
2023-01-23T18:29:26.397Z,91.35
2023-01-23T18:32:15.187Z,91.19
2023-01-23T18:34:54.508Z,90.96
2023-01-23T18:37:34.909Z,91.28
2023-01-23T18:40:18.417Z,91.21
2023-01-23T18:42:59.462Z,91.51
2023-01-23T18:45:34.163Z,91.67
2023-01-23T18:48:24.255Z,91.20
2023-01-23T18:51:13.350Z,91.42
2023-01-23T18:53:53.411Z,91.51
2023-01-23T18:56:35.519Z,91.08
2023-01-23T18:59:20.300Z,91.04
2023-01-23T19:01:55.714Z,91.29
2023-01-23T19:04:38.264Z,91.38
2023-01-23T19:07:19.239Z,91.59
2023-01-23T19:09:52.994Z,91.69
2023-01-23T19:12:32.085Z,91.65
2023-01-23T19:15:20.441Z,91.81
2023-01-23T19:18:02.313Z,92.05
2023-01-23T19:20:44.019Z,92.05
2023-01-23T19:23:32.741Z,92.04
2023-01-23T19:26:07.593Z,91.85
2023-01-23T19:28:41.941Z,91.99
2023-01-23T19:31:23.342Z,91.74
2023-01-23T19:33:57.152Z,91.79
2023-01-23T19:36:31.635Z,91.36
2023-01-23T19:39:06.933Z,91.82
2023-01-23T19:41:44.673Z,91.67
2023-01-23T19:44:19.729Z,91.67
2023-01-23T19:46:53.450Z,91.87
2023-01-23T19:49:26.516Z,91.87
2023-01-23T19:51:59.606Z,92.11
2023-01-23T19:54:33.939Z,91.96
2023-01-23T19:57:07.612Z,92.31
2023-01-23T19:59:41.618Z,92.30
2023-01-23T20:02:19.694Z,92.14
2023-01-23T20:04:53.430Z,91.83
2023-01-23T20:07:27.039Z,91.74
2023-01-23T20:10:00.662Z,91.90
2023-01-23T20:12:34.437Z,91.78
2023-01-23T20:15:13.517Z,91.43
2023-01-23T20:17:46.763Z,91.68
2023-01-23T20:20:21.302Z,91.62
2023-01-23T20:22:56.811Z,91.99
2023-01-23T20:25:30.685Z,92.14
2023-01-23T20:28:04.228Z,91.83
2023-01-23T20:30:38.231Z,91.68
2023-01-23T20:33:11.862Z,91.93
2023-01-23T20:35:47.003Z,91.75
2023-01-23T20:38:22.062Z,91.43
2023-01-23T20:40:55.382Z,91.54
2023-01-23T20:43:30.346Z,91.68
2023-01-23T20:46:06.451Z,92.13
2023-01-23T20:48:41.884Z,91.80
2023-01-23T20:51:17.174Z,91.72
2023-01-23T20:53:51.384Z,91.77
2023-01-23T20:56:27.936Z,91.70
2023-01-23T20:59:23.597Z,91.73
2023-01-23T21:02:13.543Z,91.74
2023-01-23T21:04:46.806Z,91.39
2023-01-23T21:07:22.167Z,91.76
2023-01-23T21:09:55.747Z,91.68
2023-01-23T21:12:29.351Z,91.70
2023-01-23T21:15:02.464Z,91.84
2023-01-23T21:17:35.754Z,91.76
2023-01-23T21:20:14.640Z,91.71
2023-01-23T21:22:48.330Z,91.29
2023-01-23T21:25:22.820Z,91.61
2023-01-23T21:27:57.093Z,91.49
2023-01-23T21:30:30.562Z,91.70
2023-01-23T21:33:03.869Z,91.71
2023-01-23T21:35:37.235Z,91.97
2023-01-23T21:38:11.083Z,91.53
2023-01-23T21:40:44.362Z,91.69
2023-01-23T21:43:16.952Z,92.16
2023-01-23T21:45:50.658Z,91.89
2023-01-23T21:48:25.761Z,91.73
2023-01-23T21:51:06.860Z,92.01
2023-01-23T21:53:42.125Z,92.23
2023-01-23T21:56:18.091Z,92.09
2023-01-23T21:58:51.591Z,91.68
2023-01-23T22:01:42.407Z,91.74
2023-01-23T22:04:19.188Z,91.82
2023-01-23T22:06:56.089Z,91.79
2023-01-23T22:09:29.119Z,91.88
2023-01-23T22:12:01.780Z,91.61
2023-01-23T22:14:34.615Z,92.11
2023-01-23T22:17:08.182Z,91.61
2023-01-23T22:19:41.794Z,91.62
2023-01-23T22:22:15.752Z,91.65
2023-01-23T22:24:48.539Z,91.96
2023-01-23T22:27:23.387Z,91.88
2023-01-23T22:29:56.735Z,91.69
2023-01-23T22:32:30.535Z,91.82
2023-01-23T22:35:03.907Z,91.59
2023-01-23T22:37:36.626Z,91.72
2023-01-23T22:40:12.341Z,91.84
2023-01-23T22:42:45.492Z,91.70
2023-01-23T22:45:19.430Z,91.67
2023-01-23T22:47:52.407Z,91.20
2023-01-23T22:50:27.531Z,91.42
2023-01-23T22:53:02.224Z,91.44
2023-01-23T22:55:36.074Z,91.71
2023-01-23T22:58:11.148Z,91.85
2023-01-23T23:00:46.448Z,91.44
2023-01-23T23:03:19.974Z,91.47
2023-01-23T23:06:01.718Z,91.15
2023-01-23T23:08:36.247Z,91.32
2023-01-23T23:11:11.952Z,91.64
2023-01-23T23:13:45.668Z,91.26
2023-01-23T23:16:20.851Z,91.64
2023-01-23T23:18:56.785Z,91.47
2023-01-23T23:21:33.824Z,91.78
2023-01-23T23:24:09.423Z,91.48
2023-01-23T23:26:43.629Z,91.64
2023-01-23T23:29:17.880Z,91.21
2023-01-23T23:31:52.363Z,91.58
2023-01-23T23:34:25.493Z,91.64
2023-01-23T23:36:58.976Z,91.44
2023-01-23T23:39:32.569Z,91.78
2023-01-23T23:42:06.027Z,91.31
2023-01-23T23:44:38.738Z,91.67
2023-01-23T23:47:11.664Z,91.29
2023-01-23T23:49:44.417Z,91.27
2023-01-23T23:52:17.929Z,91.18
2023-01-23T23:54:51.565Z,91.11
2023-01-23T23:57:25.744Z,91.46
2023-01-23T23:59:59.816Z,91.67
